createdAt,value
2019-01-16T00:02:13.295Z,-3.89
2019-01-16T00:04:55.702Z,-3.97
2019-01-16T00:07:54.497Z,-3.98
2019-01-16T00:10:45.980Z,-4.09
2019-01-16T00:13:40.456Z,-4.22
2019-01-16T00:16:28.235Z,-4.19
2019-01-16T00:19:13.527Z,-4.15
2019-01-16T00:21:59.938Z,-4.22
2019-01-16T00:24:49.894Z,-4.29
2019-01-16T00:27:43.495Z,-4.38
2019-01-16T00:30:40.938Z,-4.22
2019-01-16T00:33:31.513Z,-4.17
2019-01-16T00:36:21.869Z,-4.09
2019-01-16T00:39:34.214Z,-4.17
2019-01-16T00:42:30.924Z,-4.05
2019-01-16T00:45:22.841Z,-3.92
2019-01-16T00:48:15.911Z,-3.83
2019-01-16T00:51:07.457Z,-3.90
2019-01-16T00:54:02.523Z,-4.24
2019-01-16T00:57:02.400Z,-4.46
2019-01-16T00:59:56.609Z,-4.40
2019-01-16T01:02:41.914Z,-4.32
2019-01-16T01:05:32.883Z,-4.29
2019-01-16T01:08:30.630Z,-4.16
2019-01-16T01:11:31.183Z,-4.07
2019-01-16T01:14:23.480Z,-4.07
2019-01-16T01:17:33.031Z,-4.11
2019-01-16T01:20:24.161Z,-4.31
2019-01-16T01:23:19.940Z,-4.48
2019-01-16T01:26:14.195Z,-4.48
2019-01-16T01:29:01.335Z,-4.29
2019-01-16T01:31:51.436Z,-4.14
2019-01-16T01:34:39.281Z,-4.07
2019-01-16T01:37:27.004Z,-4.13
2019-01-16T01:40:15.023Z,-4.17
2019-01-16T01:43:22.744Z,-4.31
2019-01-16T01:46:05.963Z,-4.35
2019-01-16T01:49:15.479Z,-4.59
2019-01-16T01:52:10.012Z,-4.71
2019-01-16T01:55:04.468Z,-4.78
2019-01-16T01:57:55.995Z,-4.83
2019-01-16T02:00:36.714Z,-4.83
2019-01-16T02:03:33.965Z,-4.82
2019-01-16T02:06:28.417Z,-4.77
2019-01-16T02:09:24.735Z,-4.68
2019-01-16T02:12:14.698Z,-4.68
2019-01-16T02:15:09.102Z,-4.73
2019-01-16T02:18:08.033Z,-4.92
2019-01-16T02:20:59.726Z,-4.91
2019-01-16T02:23:48.607Z,-4.78
2019-01-16T02:26:38.795Z,-4.72
2019-01-16T02:29:31.300Z,-4.78
2019-01-16T02:32:31.818Z,-4.77
2019-01-16T02:35:22.693Z,-4.78
2019-01-16T02:38:09.652Z,-4.80
2019-01-16T02:41:13.026Z,-4.73
2019-01-16T02:44:02.980Z,-4.77
2019-01-16T02:47:09.779Z,-4.72
2019-01-16T02:50:01.916Z,-4.58
2019-01-16T02:52:52.033Z,-4.68
2019-01-16T02:55:37.709Z,-4.61
2019-01-16T02:58:29.329Z,-4.75
2019-01-16T03:01:19.566Z,-4.92
2019-01-16T03:04:14.168Z,-4.97
2019-01-16T03:07:14.603Z,-4.92
2019-01-16T03:10:04.777Z,-4.79
2019-01-16T03:12:55.105Z,-4.70
2019-01-16T03:15:45.372Z,-4.68
2019-01-16T03:18:27.290Z,-4.51
2019-01-16T03:21:14.836Z,-4.65
2019-01-16T03:24:01.214Z,-4.78
2019-01-16T03:26:58.478Z,-4.92
2019-01-16T03:29:56.152Z,-4.95
2019-01-16T03:32:59.538Z,-4.93
2019-01-16T03:35:54.081Z,-4.82
2019-01-16T03:38:45.524Z,-4.74
2019-01-16T03:41:39.995Z,-4.59
2019-01-16T03:44:37.441Z,-4.56
2019-01-16T03:47:47.311Z,-4.69
2019-01-16T03:50:47.882Z,-4.94
2019-01-16T03:53:42.967Z,-5.01
2019-01-16T03:56:37.265Z,-5.06
2019-01-16T03:59:33.710Z,-4.96
2019-01-16T04:02:23.005Z,-4.98
2019-01-16T04:05:13.592Z,-4.92
2019-01-16T04:08:09.713Z,-5.08
2019-01-16T04:11:01.301Z,-5.11
2019-01-16T04:13:46.176Z,-5.09
2019-01-16T04:16:49.783Z,-5.18
2019-01-16T04:19:33.878Z,-5.14
2019-01-16T04:22:34.930Z,-5.16
2019-01-16T04:25:44.768Z,-5.17
2019-01-16T04:28:37.272Z,-5.15
2019-01-16T04:31:22.587Z,-5.00
2019-01-16T04:34:18.076Z,-4.87
2019-01-16T04:37:05.418Z,-4.88
2019-01-16T04:39:55.541Z,-5.00
2019-01-16T04:42:45.779Z,-5.05
2019-01-16T04:45:35.971Z,-5.05
2019-01-16T04:48:20.781Z,-5.09
2019-01-16T04:51:10.777Z,-5.19
2019-01-16T04:54:02.306Z,-5.13
2019-01-16T04:57:06.033Z,-4.96
2019-01-16T05:00:06.427Z,-4.93
2019-01-16T05:02:56.684Z,-4.76
2019-01-16T05:05:47.087Z,-4.71
2019-01-16T05:08:41.308Z,-4.88
2019-01-16T05:11:38.565Z,-4.92
2019-01-16T05:14:48.409Z,-4.89
2019-01-16T05:17:51.816Z,-5.00
2019-01-16T05:20:41.831Z,-5.02
2019-01-16T05:23:31.949Z,-4.94
2019-01-16T05:26:15.073Z,-5.00
2019-01-16T05:29:06.628Z,-5.14
2019-01-16T05:32:04.674Z,-5.21
2019-01-16T05:34:54.952Z,-5.18
2019-01-16T05:37:55.268Z,-5.08
2019-01-16T05:40:49.115Z,-5.02
2019-01-16T05:43:58.880Z,-4.98
2019-01-16T05:46:50.386Z,-4.94
2019-01-16T05:49:34.425Z,-5.03
2019-01-16T05:52:28.921Z,-5.04
2019-01-16T05:55:19.165Z,-5.00
2019-01-16T05:58:04.672Z,-5.10
2019-01-16T06:00:48.315Z,-5.13
2019-01-16T06:03:30.645Z,-5.23
2019-01-16T06:06:28.763Z,-5.47
2019-01-16T06:09:26.437Z,-5.64
2019-01-16T06:12:16.533Z,-5.58
2019-01-16T06:15:05.523Z,-5.53
2019-01-16T06:17:57.044Z,-5.32
2019-01-16T06:23:32.208Z,-5.45
2019-01-16T06:26:36.033Z,-5.26
2019-01-16T06:29:30.596Z,-5.23
2019-01-16T06:32:30.542Z,-5.34
2019-01-16T06:35:22.736Z,-5.48
2019-01-16T06:38:26.214Z,-5.51
2019-01-16T06:41:35.788Z,-5.37
2019-01-16T06:44:27.267Z,-5.56
2019-01-16T06:47:33.956Z,-5.42
2019-01-16T06:50:18.460Z,-5.35
2019-01-16T06:53:10.008Z,-5.38
2019-01-16T06:56:13.883Z,-5.41
2019-01-16T06:59:04.556Z,-5.46
2019-01-16T07:01:59.071Z,-5.50
2019-01-16T07:04:50.705Z,-5.42
2019-01-16T07:07:40.833Z,-5.54
2019-01-16T07:10:35.587Z,-5.56
2019-01-16T07:13:21.448Z,-5.69
2019-01-16T07:16:16.131Z,-5.62
2019-01-16T07:18:59.409Z,-5.47
2019-01-16T07:22:03.338Z,-5.40
2019-01-16T07:24:54.913Z,-5.25
2019-01-16T07:27:39.101Z,-5.12
2019-01-16T07:30:35.449Z,-5.05
2019-01-16T07:33:26.016Z,-4.99
2019-01-16T07:36:23.696Z,-4.94
2019-01-16T07:39:15.221Z,-4.83
2019-01-16T07:42:00.176Z,-4.78
2019-01-16T07:45:03.779Z,-4.64
2019-01-16T07:47:48.888Z,-4.59
2019-01-16T07:50:46.521Z,-4.35
2019-01-16T07:53:40.848Z,-4.33
2019-01-16T07:56:35.189Z,-4.32
2019-01-16T07:59:38.769Z,-4.15
2019-01-16T08:02:30.327Z,-4.12
2019-01-16T08:05:28.297Z,-3.93
2019-01-16T08:08:18.532Z,-3.69
2019-01-16T08:11:13.082Z,-3.73
2019-01-16T08:14:03.627Z,-3.95
2019-01-16T08:16:57.902Z,-3.78
2019-01-16T08:19:55.399Z,-3.61
2019-01-16T08:22:36.679Z,-3.18
2019-01-16T08:25:21.170Z,-2.54
2019-01-16T08:28:17.954Z,-1.75
2019-01-16T08:31:02.165Z,-1.21
2019-01-16T08:33:43.679Z,-0.46
2019-01-16T08:36:33.932Z,-0.59
2019-01-16T08:39:28.774Z,0.18
2019-01-16T08:42:38.526Z,0.15
2019-01-16T08:45:30.038Z,0.63
2019-01-16T08:48:14.703Z,1.13
2019-01-16T08:51:04.977Z,1.04
2019-01-16T08:54:02.632Z,1.25
2019-01-16T08:57:06.364Z,0.93
2019-01-16T08:59:57.801Z,2.21
2019-01-16T09:02:47.245Z,2.26
2019-01-16T09:05:44.473Z,1.59
2019-01-16T09:08:34.743Z,2.09
2019-01-16T09:11:41.209Z,2.16
2019-01-16T09:14:31.303Z,1.66
2019-01-16T09:17:19.369Z,3.59
2019-01-16T09:20:01.651Z,4.26
2019-01-16T09:22:52.034Z,5.48
2019-01-16T09:25:43.467Z,3.66
2019-01-16T09:28:29.571Z,3.71
2019-01-16T09:31:20.405Z,3.63
2019-01-16T09:34:18.668Z,3.93
2019-01-16T09:37:08.700Z,3.47
2019-01-16T09:40:03.254Z,4.46
2019-01-16T09:43:01.579Z,5.36
2019-01-16T09:45:48.782Z,6.49
2019-01-16T09:48:46.406Z,5.57
2019-01-16T09:51:46.714Z,4.95
2019-01-16T09:54:53.422Z,7.34
2019-01-16T09:57:38.701Z,6.54
2019-01-16T10:00:32.974Z,6.82
2019-01-16T10:03:27.462Z,6.90
2019-01-16T10:06:21.352Z,7.72
2019-01-16T10:09:12.775Z,7.98
2019-01-16T10:12:03.270Z,6.28
2019-01-16T10:14:57.698Z,7.27
2019-01-16T10:17:54.216Z,7.25
2019-01-16T10:20:55.618Z,7.58
2019-01-16T10:23:41.897Z,8.13
2019-01-16T10:26:39.177Z,7.98
2019-01-16T10:29:29.577Z,8.21
2019-01-16T10:32:21.888Z,7.23
2019-01-16T10:35:13.699Z,8.70
2019-01-16T10:38:05.311Z,7.60
2019-01-16T10:40:57.126Z,8.55
2019-01-16T10:43:48.631Z,7.67
2019-01-16T10:46:52.099Z,7.03
2019-01-16T10:49:41.439Z,6.32
2019-01-16T10:52:31.496Z,7.73
2019-01-16T10:55:15.119Z,8.52
2019-01-16T10:58:09.628Z,7.42
2019-01-16T11:01:10.274Z,7.45
2019-01-16T11:04:00.539Z,7.08
2019-01-16T11:06:51.993Z,6.66
2019-01-16T11:09:31.584Z,6.79
2019-01-16T11:12:25.836Z,8.28
2019-01-16T11:15:15.851Z,8.12
2019-01-16T11:18:05.886Z,7.74
2019-01-16T11:21:11.099Z,7.82
2019-01-16T11:24:12.407Z,9.25
2019-01-16T11:27:22.439Z,9.79
2019-01-16T11:30:32.350Z,9.89
2019-01-16T11:33:32.886Z,10.22
2019-01-16T11:36:23.230Z,10.49
2019-01-16T11:39:26.937Z,9.69
2019-01-16T11:42:08.317Z,9.22
2019-01-16T11:44:58.479Z,9.33
2019-01-16T11:47:49.993Z,8.88
2019-01-16T11:50:33.275Z,9.39
2019-01-16T11:53:23.341Z,9.20
2019-01-16T11:56:08.064Z,8.17
2019-01-16T11:59:04.118Z,7.85
2019-01-16T12:01:54.220Z,8.28
2019-01-16T12:04:50.672Z,9.47
2019-01-16T12:07:36.243Z,9.00
2019-01-16T12:10:47.934Z,8.22
2019-01-16T12:13:38.023Z,8.79
2019-01-16T12:16:35.370Z,8.48
2019-01-16T12:19:42.008Z,10.90
2019-01-16T12:22:32.112Z,9.63
2019-01-16T12:25:20.782Z,9.62
2019-01-16T12:28:11.270Z,9.15
2019-01-16T12:31:08.641Z,10.15
2019-01-16T12:33:58.912Z,9.40
2019-01-16T12:36:49.191Z,10.17
2019-01-16T12:39:38.478Z,11.78
2019-01-16T12:42:21.000Z,12.89
2019-01-16T12:45:11.240Z,13.30
2019-01-16T12:48:03.372Z,13.21
2019-01-16T12:50:53.387Z,10.52
2019-01-16T12:53:43.538Z,10.45
2019-01-16T12:56:24.874Z,11.53
2019-01-16T12:59:07.449Z,11.90
2019-01-16T13:01:56.808Z,9.82
2019-01-16T13:04:47.334Z,9.45
2019-01-16T13:07:36.884Z,11.01
2019-01-16T13:10:27.267Z,10.42
2019-01-16T13:13:24.200Z,9.54
2019-01-16T13:16:22.016Z,9.71
2019-01-16T13:19:04.907Z,11.13
2019-01-16T13:21:56.026Z,10.11
2019-01-16T13:24:50.281Z,10.57
2019-01-16T13:27:41.927Z,9.63
2019-01-16T13:30:43.349Z,10.07
2019-01-16T13:33:43.812Z,8.72
2019-01-16T13:36:35.295Z,9.26
2019-01-16T13:39:28.181Z,7.81
2019-01-16T13:42:19.845Z,8.05
2019-01-16T13:45:11.339Z,8.28
2019-01-16T13:47:54.996Z,8.66
2019-01-16T13:50:41.245Z,7.96
2019-01-16T13:53:28.460Z,8.70
2019-01-16T13:56:23.049Z,7.63
2019-01-16T13:59:06.874Z,7.09
2019-01-16T14:01:49.708Z,6.85
2019-01-16T14:04:53.371Z,6.48
2019-01-16T14:07:50.931Z,6.83
2019-01-16T14:10:37.827Z,6.99
2019-01-16T14:13:25.354Z,6.49
2019-01-16T14:16:24.270Z,6.51
2019-01-16T14:19:16.521Z,6.65
2019-01-16T14:22:16.848Z,6.69
2019-01-16T14:25:20.312Z,6.69
2019-01-16T14:28:16.871Z,6.72
2019-01-16T14:31:11.028Z,6.49
2019-01-16T14:34:05.614Z,6.30
2019-01-16T14:36:56.237Z,6.10
2019-01-16T14:39:46.314Z,6.11
2019-01-16T14:42:42.455Z,6.01
2019-01-16T14:45:32.965Z,5.87
2019-01-16T14:48:36.844Z,6.15
2019-01-16T14:51:24.307Z,6.44
2019-01-16T14:54:14.159Z,6.48
2019-01-16T14:57:05.711Z,6.43
2019-01-16T14:59:55.724Z,6.71
2019-01-16T15:02:59.676Z,6.85
2019-01-16T15:06:03.263Z,6.21
2019-01-16T15:08:52.384Z,6.59
2019-01-16T15:11:40.664Z,6.63
2019-01-16T15:14:23.146Z,6.19
2019-01-16T15:17:17.805Z,6.61
2019-01-16T15:20:08.159Z,6.76
2019-01-16T15:23:11.975Z,6.61
2019-01-16T15:26:21.568Z,6.47
2019-01-16T15:29:13.033Z,6.01
2019-01-16T15:32:03.486Z,5.68
2019-01-16T15:34:44.673Z,5.49
2019-01-16T15:37:38.993Z,4.96
2019-01-16T15:40:31.589Z,4.59
2019-01-16T15:43:26.324Z,4.33
2019-01-16T15:46:29.801Z,4.02
2019-01-16T15:49:27.268Z,3.68
2019-01-16T15:52:21.580Z,3.34
2019-01-16T15:55:18.061Z,3.06
2019-01-16T15:58:02.360Z,2.93
2019-01-16T16:00:59.856Z,2.70
2019-01-16T16:03:49.380Z,2.47
2019-01-16T16:06:39.821Z,2.23
2019-01-16T16:09:29.973Z,2.05
2019-01-16T16:12:21.491Z,1.98
2019-01-16T16:15:11.749Z,1.88
2019-01-16T16:18:02.150Z,1.74
2019-01-16T16:20:52.414Z,1.48
2019-01-16T16:23:41.888Z,1.40
2019-01-16T16:26:42.303Z,1.28
2019-01-16T16:29:48.264Z,1.22
2019-01-16T16:32:42.527Z,1.16
2019-01-16T16:35:32.683Z,1.11
2019-01-16T16:38:22.310Z,0.80
2019-01-16T16:41:13.199Z,0.66
2019-01-16T16:44:01.756Z,0.66
2019-01-16T16:46:45.204Z,0.81
2019-01-16T16:49:26.177Z,0.83
2019-01-16T16:52:26.006Z,0.79
2019-01-16T16:55:14.837Z,0.59
2019-01-16T16:58:07.501Z,0.38
2019-01-16T17:00:53.695Z,0.51
2019-01-16T17:03:54.452Z,0.50
2019-01-16T17:06:45.959Z,0.42
2019-01-16T17:09:32.464Z,0.39
2019-01-16T17:12:29.727Z,0.33
2019-01-16T17:15:33.347Z,0.22
2019-01-16T17:18:24.871Z,0.05
2019-01-16T17:21:34.588Z,0.05
2019-01-16T17:24:16.776Z,0.06
2019-01-16T17:27:08.253Z,0.08
2019-01-16T17:30:09.121Z,0.07
2019-01-16T17:33:12.622Z,-0.02
2019-01-16T17:36:03.722Z,-0.10
2019-01-16T17:38:54.126Z,-0.04
2019-01-16T17:41:48.491Z,-0.03
2019-01-16T17:44:38.743Z,-0.05
2019-01-16T17:47:33.320Z,-0.07
2019-01-16T17:50:45.860Z,-0.15
2019-01-16T17:53:37.363Z,-0.22
2019-01-16T17:56:46.678Z,-0.06
2019-01-16T17:59:38.125Z,0.25
2019-01-16T18:02:28.467Z,0.48
2019-01-16T18:05:23.096Z,0.37
2019-01-16T18:08:09.694Z,0.24
2019-01-16T18:11:08.495Z,0.23
2019-01-16T18:14:07.534Z,0.14
2019-01-16T18:16:56.902Z,-0.05
2019-01-16T18:19:38.181Z,0.24
2019-01-16T18:22:29.620Z,0.03
2019-01-16T18:25:21.448Z,-0.03
2019-01-16T18:28:11.638Z,-0.11
2019-01-16T18:31:03.173Z,-0.11
2019-01-16T18:34:09.958Z,-0.28
2019-01-16T18:37:04.347Z,-0.09
2019-01-16T18:40:11.248Z,-0.14
2019-01-16T18:42:56.198Z,0.09
2019-01-16T18:45:59.943Z,0.25
2019-01-16T18:48:43.779Z,0.27
2019-01-16T18:51:28.701Z,0.19
2019-01-16T18:54:29.556Z,0.11
2019-01-16T18:57:21.048Z,0.24
2019-01-16T19:00:12.518Z,0.23
2019-01-16T19:02:56.453Z,0.19
2019-01-16T19:05:45.551Z,0.23
2019-01-16T19:08:42.837Z,0.59
2019-01-16T19:11:49.824Z,0.53
2019-01-16T19:14:33.959Z,0.51
2019-01-16T19:17:24.195Z,0.66
2019-01-16T19:20:24.319Z,0.61
2019-01-16T19:23:14.552Z,0.90
2019-01-16T19:26:06.609Z,0.91
2019-01-16T19:28:56.799Z,0.90
2019-01-16T19:32:03.339Z,1.02
2019-01-16T19:34:53.602Z,0.81
2019-01-16T19:37:46.482Z,0.70
2019-01-16T19:40:52.836Z,0.54
2019-01-16T19:43:45.769Z,0.51
2019-01-16T19:46:55.303Z,0.25
2019-01-16T19:49:56.008Z,0.45
2019-01-16T19:52:42.624Z,0.12
2019-01-16T19:55:33.835Z,-0.12
2019-01-16T19:58:24.496Z,-0.21
2019-01-16T20:01:24.322Z,-0.23
2019-01-16T20:04:14.951Z,-0.40
2019-01-16T20:07:05.186Z,-0.42
2019-01-16T20:09:53.349Z,-0.55
2019-01-16T20:12:53.863Z,-0.59
2019-01-16T20:15:57.680Z,-0.56
2019-01-16T20:18:49.114Z,-0.62
2019-01-16T20:21:29.655Z,-0.56
2019-01-16T20:24:19.691Z,-0.38
2019-01-16T20:27:09.904Z,-0.23
2019-01-16T20:29:54.058Z,-0.18
2019-01-16T20:32:39.465Z,-0.36
2019-01-16T20:35:30.922Z,-0.56
2019-01-16T20:38:20.611Z,-0.75
2019-01-16T20:41:18.210Z,-0.61
2019-01-16T20:44:27.811Z,-0.74
2019-01-16T20:47:25.561Z,-0.80
2019-01-16T20:50:16.995Z,-0.78
2019-01-16T20:53:17.599Z,-0.74
2019-01-16T20:56:12.770Z,-0.82
2019-01-16T20:58:52.560Z,-0.96
2019-01-16T21:01:42.850Z,-1.05
2019-01-16T21:04:37.075Z,-1.09
2019-01-16T21:07:26.754Z,-1.00
2019-01-16T21:10:17.144Z,-0.63
2019-01-16T21:13:02.148Z,-0.71
2019-01-16T21:15:52.094Z,-0.91
2019-01-16T21:18:53.408Z,-1.10
2019-01-16T21:21:56.854Z,-1.07
2019-01-16T21:24:43.603Z,-0.96
2019-01-16T21:27:33.846Z,-0.75
2019-01-16T21:30:40.520Z,-0.34
2019-01-16T21:33:32.090Z,0.00
2019-01-16T21:36:15.927Z,0.05
2019-01-16T21:39:23.303Z,-0.01
2019-01-16T21:42:12.856Z,0.07
2019-01-16T21:44:56.210Z,-0.02
2019-01-16T21:47:59.744Z,0.36
2019-01-16T21:50:41.795Z,0.59
2019-01-16T21:53:39.119Z,0.82
2019-01-16T21:56:39.786Z,0.97
2019-01-16T21:59:46.123Z,0.89
2019-01-16T22:02:36.873Z,0.63
2019-01-16T22:05:18.522Z,0.51
2019-01-16T22:08:18.894Z,0.53
2019-01-16T22:11:04.396Z,0.54
2019-01-16T22:13:43.898Z,0.46
2019-01-16T22:16:42.637Z,0.15
2019-01-16T22:19:27.197Z,0.06
2019-01-16T22:22:22.632Z,-0.01
2019-01-16T22:25:23.270Z,0.19
2019-01-16T22:28:19.044Z,0.42
2019-01-16T22:31:07.918Z,0.54
2019-01-16T22:33:51.353Z,0.45
2019-01-16T22:36:41.424Z,0.16
2019-01-16T22:39:51.094Z,0.49
2019-01-16T22:42:46.799Z,0.63
2019-01-16T22:45:38.272Z,0.72
2019-01-16T22:48:47.848Z,0.74
2019-01-16T22:51:42.060Z,0.52
2019-01-16T22:54:32.261Z,0.92
2019-01-16T22:57:23.152Z,0.63
2019-01-16T23:00:14.549Z,0.57
2019-01-16T23:02:54.644Z,0.82
2019-01-16T23:05:52.165Z,0.95
2019-01-16T23:08:32.151Z,1.00
2019-01-16T23:11:29.593Z,1.04
2019-01-16T23:14:33.407Z,0.82
2019-01-16T23:17:23.655Z,0.61
2019-01-16T23:20:20.949Z,0.76
2019-01-16T23:23:01.562Z,0.80
2019-01-16T23:26:08.202Z,0.88
2019-01-16T23:29:08.739Z,0.95
2019-01-16T23:32:03.338Z,1.07
2019-01-16T23:34:53.343Z,0.93
2019-01-16T23:37:39.084Z,0.99
2019-01-16T23:40:31.010Z,1.10
2019-01-16T23:43:31.209Z,1.17
2019-01-16T23:46:23.256Z,1.29
2019-01-16T23:49:13.639Z,1.25
2019-01-16T23:51:58.644Z,1.02
2019-01-16T23:54:50.082Z,0.80
2019-01-16T23:57:38.946Z,0.97
